Time;durP1;ratioP1;P1;durP2;ratioP2;P2;SDS_P1;SDS_P2;PMS_P1;PMS_P2;Temp;Humidity;BMP_temperature;BMP_pressure;BME280_temperature;BME280_humidity;BME280_pressure;Samples;Min_cycle;Max_cycle;Signal;HPM_P1;HPM_P2
2022/03/04 05:01:44;;;;;;;38.60;24.33;;;;;;;5.53;54.80;100417.22;5605752;31;77120;-54
2022/03/04 05:04:47;;;;;;;43.97;24.20;;;;;;;5.53;54.80;100417.22;5586861;31;33419;-54
2022/03/04 05:07:50;;;;;;;42.83;25.67;;;;;;;5.00;55.58;100427.37;5596352;31;32380;-54
2022/03/04 05:10:52;;;;;;;41.28;25.77;;;;;;;5.17;55.07;100430.03;5603206;31;33633;-55
2022/03/04 05:13:55;;;;;;;38.08;24.55;;;;;;;5.22;55.16;100437.25;5602848;31;34002;-54
2022/03/04 05:16:57;;;;;;;38.30;25.50;;;;;;;5.32;54.21;100437.41;5589971;31;33627;-54
2022/03/04 05:19:59;;;;;;;41.08;25.80;;;;;;;5.49;53.55;100442.69;5583481;32;34237;-54
2022/03/04 05:23:02;;;;;;;36.60;24.95;;;;;;;5.61;52.86;100449.53;5594019;31;33585;-54
2022/03/04 05:26:04;;;;;;;37.63;25.52;;;;;;;5.76;51.68;100448.94;5583881;31;31803;-54
2022/03/04 05:29:10;;;;;;;36.65;25.17;;;;;;;5.87;51.65;100461.31;5590415;31;34245;-54
2022/03/04 05:32:12;;;;;;;37.78;25.92;;;;;;;5.96;51.21;100460.91;5602461;31;34251;-54
2022/03/04 05:35:15;;;;;;;35.88;24.73;;;;;;;6.21;50.11;100468.41;5603115;31;34493;-55
2022/03/04 05:38:18;;;;;;;35.53;25.52;;;;;;;6.30;50.24;100469.56;5602599;31;34146;-54
2022/03/04 05:41:21;;;;;;;40.33;24.52;;;;;;;6.23;50.20;100477.75;5601410;31;34401;-54
2022/03/04 05:44:24;;;;;;;36.25;24.33;;;;;;;6.39;48.56;100473.41;5598766;31;33967;-54
2022/03/04 05:47:26;;;;;;;35.15;24.83;;;;;;;6.67;47.63;100476.88;5593948;31;34417;-54
2022/03/04 05:50:29;;;;;;;37.10;25.10;;;;;;;6.82;46.78;100485.81;5600256;31;34253;-55
2022/03/04 05:53:32;;;;;;;40.40;26.55;;;;;;;6.95;46.86;100484.59;5598543;31;33649;-55
2022/03/04 05:56:34;;;;;;;45.08;28.17;;;;;;;6.88;46.82;100489.31;5564056;32;36411;-55
2022/03/04 05:59:37;;;;;;;40.63;27.37;;;;;;;6.99;46.54;100492.91;5563162;32;33808;-54
2022/03/04 06:02:39;;;;;;;42.03;26.83;;;;;;;6.79;47.75;100488.19;5563349;32;33656;-54
2022/03/04 06:05:42;;;;;;;42.00;26.87;;;;;;;6.74;47.83;100494.25;5563262;32;33213;-54
2022/03/04 06:08:45;;;;;;;39.70;27.23;;;;;;;6.66;48.06;100485.94;5582003;32;32247;-54
2022/03/04 06:11:47;;;;;;;43.83;29.25;;;;;;;6.74;47.76;100496.12;5575601;32;34391;-55
2022/03/04 06:14:49;;;;;;;41.65;27.58;;;;;;;6.76;47.70;100497.50;5564678;32;33693;-54
2022/03/04 06:17:52;;;;;;;39.10;26.58;;;;;;;6.67;48.47;100506.97;5560248;32;33734;-54
2022/03/04 06:20:54;;;;;;;49.53;28.38;;;;;;;6.81;48.26;100512.72;5556313;32;33734;-54
2022/03/04 06:23:57;;;;;;;42.45;28.55;;;;;;;6.88;47.94;100521.28;5564120;32;33739;-55
2022/03/04 06:27:01;;;;;;;42.60;27.27;;;;;;;6.93;47.82;100517.91;5562307;32;34251;-55
2022/03/04 06:30:04;;;;;;;41.00;28.40;;;;;;;6.82;48.63;100532.97;5566341;32;33661;-54
2022/03/04 06:36:30;;;;;;;44.42;28.80;;;;;;;6.98;48.30;100531.25;5567144;32;33722;-55
2022/03/04 06:39:32;;;;;;;43.78;28.38;;;;;;;7.00;48.28;100535.28;5567195;32;33506;-55
2022/03/04 06:42:39;;;;;;;39.75;26.17;;;;;;;6.78;49.00;100540.66;5559565;32;33947;-55
2022/03/04 06:45:42;;;;;;;39.63;26.48;;;;;;;6.86;48.22;100543.94;5554076;32;34270;-54
2022/03/04 06:48:45;;;;;;;44.25;27.98;;;;;;;6.58;48.89;100543.09;5553607;32;33665;-55
2022/03/04 06:51:48;;;;;;;36.85;26.52;;;;;;;6.40;49.90;100536.25;5563401;32;33619;-54
2022/03/04 06:54:51;;;;;;;41.92;27.10;;;;;;;6.75;48.48;100537.69;5553917;32;33925;-55
2022/03/04 06:57:54;;;;;;;42.97;26.20;;;;;;;6.65;48.08;100538.37;5564979;32;33738;-54
2022/03/04 07:00:56;;;;;;;40.45;26.45;;;;;;;6.69;48.57;100534.19;5568510;32;34346;-54
2022/03/04 07:03:59;;;;;;;40.40;26.83;;;;;;;6.65;49.37;100542.91;5565721;32;33612;-56
2022/03/04 07:07:01;;;;;;;41.75;27.25;;;;;;;6.85;48.16;100545.78;5557147;32;34367;-54
2022/03/04 07:10:05;;;;;;;34.20;24.52;;;;;;;6.80;48.86;100548.41;5565483;32;34150;-54
2022/03/04 07:13:07;;;;;;;40.95;28.30;;;;;;;6.80;48.29;100551.88;5558911;32;34411;-55
2022/03/04 07:16:10;;;;;;;37.10;26.65;;;;;;;6.64;49.39;100554.63;5549608;32;33714;-54
2022/03/04 07:19:15;;;;;;;44.40;26.67;;;;;;;7.02;47.99;100564.38;5551051;32;33916;-55
2022/03/04 07:22:17;;;;;;;38.55;26.65;;;;;;;7.09;47.83;100569.50;5559594;32;33701;-55
2022/03/04 07:25:19;;;;;;;40.38;28.00;;;;;;;7.11;48.05;100568.16;5565401;32;33580;-55
2022/03/04 07:28:22;;;;;;;45.97;26.62;;;;;;;7.13;48.62;100571.41;5568850;32;34278;-54
2022/03/04 07:31:24;;;;;;;37.00;25.52;;;;;;;7.01;49.08;100584.06;5560264;32;35193;-55
2022/03/04 07:34:26;;;;;;;44.38;26.55;;;;;;;6.87;50.80;100594.31;5549859;32;33765;-55
2022/03/04 07:37:29;;;;;;;41.42;28.52;;;;;;;6.69;52.61;100594.62;5548712;32;33553;-54
2022/03/04 07:40:31;;;;;;;41.10;26.98;;;;;;;6.32;56.12;100600.56;5548589;32;33550;-54
2022/03/04 07:43:34;;;;;;;44.20;29.52;;;;;;;6.20;57.38;100592.72;5556810;32;33593;-54
2022/03/04 07:46:37;;;;;;;39.95;28.50;;;;;;;6.16;58.90;100606.72;5557332;32;34260;-54
2022/03/04 07:49:42;;;;;;;43.20;28.48;;;;;;;6.06;59.08;100613.56;5559216;32;33670;-54
2022/03/04 07:52:44;;;;;;;40.08;27.92;;;;;;;6.02;59.68;100608.94;5555497;32;33650;-55
2022/03/04 07:55:47;;;;;;;44.90;29.40;;;;;;;5.88;61.28;100606.59;5549112;32;33582;-55
2022/03/04 07:58:49;;;;;;;47.25;30.83;;;;;;;6.02;60.74;100615.06;5557620;32;33708;-54
2022/03/04 08:01:52;;;;;;;43.05;28.77;;;;;;;6.11;60.91;100618.94;5564777;32;34181;-55
2022/03/04 08:04:55;;;;;;;46.88;29.77;;;;;;;5.92;60.86;100622.88;5557182;32;33623;-54
2022/03/04 08:07:57;;;;;;;40.28;28.02;;;;;;;5.91;61.21;100617.81;5563288;32;34286;-54
2022/03/04 08:10:59;;;;;;;39.60;28.25;;;;;;;5.84;62.08;100625.94;5564231;32;33639;-55
2022/03/04 08:14:02;;;;;;;45.83;30.75;;;;;;;5.85;60.49;100620.37;5565892;32;34164;-54
2022/03/04 08:17:04;;;;;;;44.58;30.27;;;;;;;6.03;60.19;100632.66;5555527;32;33655;-55
2022/03/04 08:20:07;;;;;;;46.50;31.15;;;;;;;5.88;60.84;100619.09;5560288;32;33354;-55
2022/03/04 08:23:13;;;;;;;46.58;31.95;;;;;;;5.94;61.92;100628.78;5549084;32;33662;-54
2022/03/04 08:26:15;;;;;;;47.80;31.62;;;;;;;5.90;60.98;100622.31;5549966;32;34223;-55
2022/03/04 08:29:17;;;;;;;49.35;31.55;;;;;;;5.51;62.43;100626.75;5553130;32;33752;-55
2022/03/04 08:32:23;;;;;;;47.90;31.70;;;;;;;5.68;61.85;100624.91;5561635;32;33616;-54
2022/03/04 08:35:31;;;;;;;48.75;30.37;;;;;;;5.91;61.34;100621.25;5555798;32;33550;-54
2022/03/04 08:38:34;;;;;;;50.08;31.58;;;;;;;6.02;61.04;100623.03;5559713;32;33640;-56
2022/03/04 08:41:37;;;;;;;47.83;32.20;;;;;;;6.15;62.52;100619.25;5554601;32;33128;-54
2022/03/04 08:44:42;;;;;;;44.53;30.17;;;;;;;6.11;60.79;100620.78;5549013;32;33583;-54
2022/03/04 08:47:44;;;;;;;44.65;30.05;;;;;;;6.19;59.23;100619.56;5549325;32;33680;-54
2022/03/04 08:50:47;;;;;;;43.22;29.02;;;;;;;6.25;59.49;100623.91;5567758;32;35643;-54
2022/03/04 08:53:49;;;;;;;45.10;28.67;;;;;;;6.26;59.03;100620.22;5563530;32;33655;-55
2022/03/04 08:56:51;;;;;;;42.10;29.15;;;;;;;6.28;56.96;100626.09;5553807;32;33794;-56
2022/03/04 08:59:54;;;;;;;43.20;29.65;;;;;;;6.42;56.00;100623.87;5557099;32;33756;-54
2022/03/04 09:02:56;;;;;;;50.85;31.20;;;;;;;6.52;57.07;100619.50;5552884;32;34356;-54
2022/03/04 09:05:59;;;;;;;46.53;29.87;;;;;;;6.39;58.19;100621.69;5561598;32;34321;-55
2022/03/04 09:09:01;;;;;;;48.90;31.83;;;;;;;6.45;57.13;100626.84;5566851;32;33595;-54
2022/03/04 09:12:04;;;;;;;46.97;31.15;;;;;;;6.44;57.42;100622.56;5564892;32;34335;-54
2022/03/04 09:15:07;;;;;;;45.47;30.73;;;;;;;6.52;56.38;100630.16;5556189;32;33604;-54
2022/03/04 09:18:10;;;;;;;42.83;29.92;;;;;;;6.66;56.36;100627.94;5559301;32;34311;-54
2022/03/04 09:21:12;;;;;;;46.35;30.77;;;;;;;6.73;56.11;100638.41;5564477;32;33593;-55
2022/03/04 09:24:15;;;;;;;44.83;29.63;;;;;;;6.72;55.87;100637.59;5557483;32;33618;-55
2022/03/04 09:27:17;;;;;;;43.42;29.65;;;;;;;6.67;55.05;100632.19;5567241;32;33373;-54
2022/03/04 09:30:20;;;;;;;45.03;29.23;;;;;;;6.59;53.71;100629.97;5566025;32;33607;-54
2022/03/04 09:33:22;;;;;;;40.08;28.58;;;;;;;6.75;52.65;100636.28;5560712;32;33267;-54
2022/03/04 09:36:26;;;;;;;43.25;28.52;;;;;;;6.64;52.34;100637.22;5556958;32;34440;-54
2022/03/04 09:39:28;;;;;;;44.13;29.75;;;;;;;6.75;52.69;100633.59;5547646;32;33771;-54
2022/03/04 09:42:34;;;;;;;41.08;28.08;;;;;;;6.80;52.82;100641.66;5547903;32;34393;-54
2022/03/04 09:45:36;;;;;;;43.92;28.48;;;;;;;6.77;52.51;100642.97;5552579;32;33868;-54
2022/03/04 09:48:43;;;;;;;40.15;28.25;;;;;;;6.73;51.04;100641.06;5550770;32;33560;-55
2022/03/04 09:51:45;;;;;;;43.85;28.77;;;;;;;6.67;51.00;100644.72;5569570;32;33869;-54
2022/03/04 09:54:51;;;;;;;41.97;28.42;;;;;;;6.79;50.70;100642.72;5566588;32;34337;-54
2022/03/04 09:57:53;;;;;;;46.05;27.20;;;;;;;7.03;51.32;100640.59;5568977;32;33737;-54
2022/03/04 10:00:56;;;;;;;45.05;28.20;;;;;;;7.18;49.45;100635.41;5560603;32;34766;-55
2022/03/04 10:03:59;;;;;;;40.17;26.50;;;;;;;7.02;49.45;100639.81;5550312;32;33598;-54
2022/03/04 10:07:15;;;;;;;37.80;26.52;;;;;;;6.94;48.84;100642.91;5556768;32;34230;-54
2022/03/04 10:10:22;;;;;;;40.88;27.33;;;;;;;7.02;49.44;100641.66;5550591;32;34304;-54
2022/03/04 10:13:47;;;;;;;41.72;26.12;;;;;;;7.12;49.14;100636.44;5550428;32;33713;-54
2022/03/04 10:16:57;;;;;;;39.28;27.55;;;;;;;7.15;49.13;100632.44;5550838;32;33696;-54
2022/03/04 10:20:18;;;;;;;40.30;28.62;;;;;;;7.09;49.17;100628.16;5568277;32;33725;-54
2022/03/04 10:23:23;;;;;;;41.60;27.23;;;;;;;7.13;48.08;100634.59;5556340;31;33472;-54
2022/03/04 10:26:29;;;;;;;45.78;28.38;;;;;;;7.43;47.47;100636.75;5565843;32;33710;-55
2022/03/04 10:29:34;;;;;;;45.07;29.30;;;;;;;7.42;47.59;100630.59;5559732;32;33708;-54
2022/03/04 10:32:46;;;;;;;38.85;27.45;;;;;;;7.29;47.24;100631.00;5555262;32;34389;-54
2022/03/04 10:36:06;;;;;;;42.90;28.87;;;;;;;7.53;46.65;100624.28;5556930;32;33630;-54
2022/03/04 10:39:09;;;;;;;41.80;29.17;;;;;;;7.57;46.89;100627.25;5560377;32;34243;-54
2022/03/04 10:42:12;;;;;;;39.60;28.35;;;;;;;7.59;46.88;100624.34;5558483;32;34391;-55
2022/03/04 10:45:42;;;;;;;44.03;29.00;;;;;;;7.69;46.55;100624.44;5550441;32;34190;-54
2022/03/04 10:48:57;;;;;;;38.47;28.40;;;;;;;7.75;46.48;100623.41;5558877;32;34535;-55
2022/03/04 10:52:06;;;;;;;39.63;28.45;;;;;;;7.74;46.82;100622.59;5566447;32;33806;-54
2022/03/04 10:55:10;;;;;;;42.40;29.80;;;;;;;7.90;46.81;100620.03;5552184;32;33592;-55
2022/03/04 10:58:22;;;;;;;42.15;30.05;;;;;;;7.92;47.30;100620.59;5556897;32;33399;-56
2022/03/04 11:01:24;;;;;;;47.20;29.95;;;;;;;7.55;48.68;100624.06;5559215;32;33832;-55
2022/03/04 11:04:27;;;;;;;41.37;29.55;;;;;;;7.33;49.16;100624.13;5562746;32;34440;-55
2022/03/04 11:07:30;;;;;;;48.13;31.58;;;;;;;7.52;48.85;100625.34;5567112;32;31984;-55
2022/03/04 11:10:32;;;;;;;41.53;29.60;;;;;;;7.70;48.87;100628.69;5569524;32;32984;-54
2022/03/04 11:13:36;;;;;;;46.30;30.40;;;;;;;7.65;49.67;100623.31;5567694;32;34348;-54
2022/03/04 11:16:40;;;;;;;45.38;30.37;;;;;;;7.81;48.92;100627.72;5556953;32;34445;-55
2022/03/04 11:19:43;;;;;;;47.95;31.45;;;;;;;7.98;48.39;100616.91;5555850;32;34098;-55
2022/03/04 11:22:50;;;;;;;42.33;29.70;;;;;;;7.81;49.44;100622.38;5561678;32;33784;-54
2022/03/04 11:25:56;;;;;;;45.97;30.70;;;;;;;7.60;49.54;100617.94;5557832;32;33945;-55
2022/03/04 11:29:02;;;;;;;42.88;29.77;;;;;;;7.83;48.54;100620.25;5551659;32;33749;-55
2022/03/04 11:32:06;;;;;;;42.40;29.10;;;;;;;7.89;47.70;100621.13;5552605;32;34112;-55
2022/03/04 11:35:08;;;;;;;41.42;28.48;;;;;;;7.87;47.38;100620.56;5558188;32;34467;-55
2022/03/04 11:38:12;;;;;;;44.47;29.45;;;;;;;7.66;47.50;100623.06;5559384;32;34423;-54
2022/03/04 11:41:23;;;;;;;40.65;27.40;;;;;;;7.96;47.00;100617.16;5558286;32;33697;-55
2022/03/04 11:44:29;;;;;;;41.90;28.62;;;;;;;7.83;46.73;100622.94;5549674;32;33881;-55
2022/03/04 11:47:37;;;;;;;41.10;27.90;;;;;;;7.69;46.95;100614.56;5553907;32;33628;-54
2022/03/04 11:50:46;;;;;;;38.58;28.30;;;;;;;7.89;46.55;100615.78;5555019;32;34408;-54
2022/03/04 11:54:23;;;;;;;41.30;28.87;;;;;;;7.94;46.63;100613.91;5551693;32;34284;-55
2022/03/04 11:57:28;;;;;;;40.90;27.85;;;;;;;7.99;46.61;100613.97;5568536;32;33647;-55
2022/03/04 12:00:37;;;;;;;44.63;30.00;;;;;;;8.06;46.66;100610.28;5562827;32;34321;-55
2022/03/04 12:04:14;;;;;;;41.88;28.38;;;;;;;7.85;46.87;100615.47;5554267;32;34401;-55
2022/03/04 12:07:33;;;;;;;42.22;29.27;;;;;;;8.05;47.80;100614.03;5554555;32;32421;-55
2022/03/04 12:10:37;;;;;;;44.95;29.90;;;;;;;7.94;48.73;100621.13;5560496;32;34389;-54
2022/03/04 12:13:41;;;;;;;42.50;30.75;;;;;;;7.48;50.48;100632.25;5555041;32;34124;-54
2022/03/04 12:16:49;;;;;;;45.22;30.65;;;;;;;7.28;51.50;100626.72;5555261;32;33502;-54
2022/03/04 12:19:55;;;;;;;47.47;30.27;;;;;;;7.47;51.67;100630.63;5567036;32;33630;-55
2022/03/04 12:22:58;;;;;;;44.88;31.33;;;;;;;7.59;51.57;100632.34;5556861;32;33702;-55
2022/03/04 12:26:01;;;;;;;44.97;30.85;;;;;;;7.15;52.67;100622.63;5555940;32;33660;-54
2022/03/04 12:29:06;;;;;;;45.78;28.45;;;;;;;6.98;52.59;100625.34;5560167;32;33702;-54
2022/03/04 12:32:09;;;;;;;44.00;30.67;;;;;;;7.09;52.65;100628.16;5566039;32;33805;-54
2022/03/04 12:35:16;;;;;;;42.55;29.23;;;;;;;7.16;51.94;100640.22;5549456;32;33761;-54
2022/03/04 12:38:18;;;;;;;43.00;29.15;;;;;;;7.30;51.21;100629.94;5557477;32;33763;-55
2022/03/04 12:41:26;;;;;;;45.85;31.40;;;;;;;6.74;52.11;100634.66;5562270;32;33702;-54
2022/03/04 12:44:28;;;;;;;41.05;28.40;;;;;;;6.42;52.82;100629.19;5553228;32;33720;-54
2022/03/04 12:47:36;;;;;;;44.60;29.63;;;;;;;6.54;52.58;100630.69;5564413;32;34417;-55
2022/03/04 12:50:39;;;;;;;;;;;;;;;6.81;51.67;100629.94;5567887;32;33657;-54
2022/03/04 12:53:41;;;;;;;43.42;28.83;;;;;;;6.56;52.35;100625.94;5551578;32;34168;-54
2022/03/04 12:57:00;;;;;;;39.67;27.23;;;;;;;6.56;52.90;100623.28;5564131;32;33683;-54
2022/03/04 13:00:03;;;;;;;44.35;27.87;;;;;;;6.97;51.73;100623.75;5565750;32;33348;-54
2022/03/04 13:03:19;;;;;;;42.00;27.52;;;;;;;7.07;51.77;100626.50;5554693;32;33840;-55
2022/03/04 13:06:25;;;;;;;44.78;29.50;;;;;;;7.23;50.89;100621.34;5566035;32;34448;-54
2022/03/04 13:09:28;;;;;;;40.20;29.27;;;;;;;7.46;50.84;100612.22;5565144;32;33291;-55
2022/03/04 13:12:31;;;;;;;42.10;29.17;;;;;;;7.50;51.22;100618.66;5558854;32;33660;-55
2022/03/04 13:15:33;;;;;;;45.75;28.92;;;;;;;7.34;52.72;100616.91;5561327;32;34365;-54
2022/03/04 13:18:36;;;;;;;44.08;30.27;;;;;;;7.69;51.49;100619.91;5561937;32;34334;-55
2022/03/04 13:22:00;;;;;;;44.58;31.45;;;;;;;7.63;52.09;100612.09;5568902;32;33720;-54
2022/03/04 13:25:03;;;;;;;50.00;30.08;;;;;;;7.17;53.31;100609.81;5570570;32;33835;-54
2022/03/04 13:28:05;;;;;;;41.72;28.62;;;;;;;6.95;54.46;100617.84;5567829;32;33523;-54
2022/03/04 13:31:20;;;;;;;43.90;29.27;;;;;;;7.26;53.73;100613.66;5570515;32;34292;-54
2022/03/04 13:34:28;;;;;;;44.10;30.00;;;;;;;7.45;53.55;100616.75;5570370;32;33665;-54
2022/03/04 13:37:39;;;;;;;44.42;31.70;;;;;;;7.27;53.74;100617.13;5569979;32;33622;-54
2022/03/04 13:40:41;;;;;;;35.60;27.23;;;;;;;7.43;52.74;100623.41;5554004;32;33697;-54
2022/03/04 13:43:43;;;;;;;36.47;26.00;;;;;;;7.28;51.89;100616.87;5557127;32;33693;-54
2022/03/04 13:47:06;;;;;;;39.60;27.65;;;;;;;7.12;51.99;100620.44;5556231;32;34237;-54
2022/03/04 13:50:28;;;;;;;39.47;26.50;;;;;;;6.66;54.17;100622.59;5563858;32;33743;-54
2022/03/04 13:53:32;;;;;;;36.85;25.50;;;;;;;6.66;54.64;100622.59;5550640;32;33765;-54
2022/03/04 13:56:39;;;;;;;41.55;27.58;;;;;;;6.53;54.94;100623.75;5569036;32;34385;-54
2022/03/04 13:59:48;;;;;;;35.33;24.73;;;;;;;6.70;54.13;100614.91;5569704;32;33653;-54
2022/03/04 14:02:52;;;;;;;36.50;26.50;;;;;;;6.40;54.39;100615.34;5567271;32;34449;-55
2022/03/04 14:06:02;;;;;;;39.13;27.55;;;;;;;6.57;53.59;100613.41;5561048;32;33634;-54
2022/03/04 14:09:11;;;;;;;40.47;26.67;;;;;;;6.74;51.34;100616.81;5562419;32;34491;-54
2022/03/04 14:12:14;;;;;;;44.80;28.05;;;;;;;6.79;50.90;100616.87;5550080;32;33655;-53
2022/03/04 14:15:16;;;;;;;38.97;26.62;;;;;;;6.97;50.73;100614.94;5549997;32;33829;-55
2022/03/04 14:18:20;;;;;;;42.53;28.52;;;;;;;6.94;50.45;100618.09;5548776;32;33685;-54
2022/03/04 14:21:22;;;;;;;38.90;27.17;;;;;;;6.87;50.77;100620.97;5558741;32;33738;-54
2022/03/04 14:24:25;;;;;;;39.08;26.62;;;;;;;6.85;50.34;100614.28;5569322;32;34399;-54
2022/03/04 14:27:27;;;;;;;42.95;29.33;;;;;;;6.99;50.21;100620.84;5568972;32;33737;-55
2022/03/04 14:30:32;;;;;;;41.55;28.27;;;;;;;7.10;51.35;100614.56;5568805;32;33758;-54
2022/03/04 14:33:35;;;;;;;41.67;29.92;;;;;;;6.99;51.49;100621.66;5568183;32;33652;-55
2022/03/04 14:36:37;;;;;;;42.90;30.25;;;;;;;7.21;51.75;100620.78;5569485;32;34443;-54
2022/03/04 14:39:59;;;;;;;43.67;30.40;;;;;;;7.21;51.88;100618.12;5569453;32;33721;-53
2022/03/04 14:43:03;;;;;;;43.75;29.60;;;;;;;7.05;52.76;100617.97;5569184;32;33794;-54
2022/03/04 14:46:08;;;;;;;43.95;32.40;;;;;;;6.80;53.72;100621.16;5569455;32;33741;-54
2022/03/04 14:49:10;;;;;;;42.95;30.05;;;;;;;6.91;54.24;100621.28;5569296;32;33818;-55
2022/03/04 14:52:13;;;;;;;43.33;29.63;;;;;;;6.82;54.75;100613.72;5569299;32;33944;-54
2022/03/04 14:55:16;;;;;;;42.83;31.15;;;;;;;7.01;54.22;100616.84;5569247;32;34347;-54
2022/03/04 14:58:18;;;;;;;40.30;28.75;;;;;;;7.07;53.55;100615.84;5558131;32;34310;-55
2022/03/04 15:01:21;;;;;;;39.65;28.15;;;;;;;7.12;52.63;100616.94;5549682;32;33611;-55
2022/03/04 15:04:25;;;;;;;41.50;29.33;;;;;;;6.85;52.46;100616.94;5553675;32;33695;-55
2022/03/04 15:07:29;;;;;;;40.75;28.48;;;;;;;6.90;52.29;100615.12;5554688;32;33629;-54
2022/03/04 15:10:31;;;;;;;38.10;27.35;;;;;;;7.11;51.02;100616.16;5556572;32;32454;-55
2022/03/04 15:13:33;;;;;;;41.58;28.50;;;;;;;7.21;50.27;100612.78;5569535;32;33665;-54
2022/03/04 15:16:36;;;;;;;40.12;27.30;;;;;;;7.24;50.95;100612.28;5553720;32;33833;-54
2022/03/04 15:19:41;;;;;;;38.50;26.52;;;;;;;7.29;49.93;100615.00;5549999;32;34364;-54
2022/03/04 15:22:47;;;;;;;41.10;28.60;;;;;;;7.23;49.97;100619.47;5549608;32;34412;-55
2022/03/04 15:25:51;;;;;;;41.58;29.80;;;;;;;7.16;50.22;100623.41;5549590;32;33702;-55
2022/03/04 15:28:56;;;;;;;46.30;31.60;;;;;;;6.95;50.43;100627.72;5559383;32;34032;-54
2022/03/04 15:32:04;;;;;;;47.15;30.50;;;;;;;6.73;51.05;100630.41;5569383;32;34409;-55
2022/03/04 15:35:09;;;;;;;42.92;29.83;;;;;;;6.58;51.32;100625.69;5569322;32;33851;-54
2022/03/04 15:38:12;;;;;;;46.28;32.05;;;;;;;6.62;51.65;100633.97;5569265;32;33632;-54
2022/03/04 15:41:14;;;;;;;43.58;30.70;;;;;;;6.82;51.87;100640.37;5569079;32;34194;-54
2022/03/04 15:44:28;;;;;;;45.53;30.25;;;;;;;6.82;50.41;100637.72;5567154;32;33828;-54
2022/03/04 15:47:30;;;;;;;42.10;30.35;;;;;;;6.79;50.35;100640.87;5567862;32;34424;-54
2022/03/04 15:50:32;;;;;;;46.37;30.75;;;;;;;6.92;50.62;100644.19;5549470;32;33693;-55
2022/03/04 15:53:35;;;;;;;44.78;31.55;;;;;;;7.20;49.07;100645.84;5552033;32;34179;-54
2022/03/04 15:56:38;;;;;;;42.28;30.92;;;;;;;7.01;48.87;100642.69;5549514;32;33711;-54
2022/03/04 15:59:42;;;;;;;45.53;31.30;;;;;;;7.01;49.28;100648.03;5550038;32;33745;-55
2022/03/04 16:02:45;;;;;;;42.62;31.23;;;;;;;7.19;49.71;100646.91;5555919;32;33685;-54
2022/03/04 16:05:48;;;;;;;43.28;31.62;;;;;;;7.09;50.89;100650.28;5569113;32;33673;-55
2022/03/04 16:08:52;;;;;;;46.63;32.83;;;;;;;7.07;51.43;100645.19;5569189;32;33418;-54
2022/03/04 16:11:55;;;;;;;44.90;32.45;;;;;;;6.99;52.22;100645.62;5568853;32;34502;-54
2022/03/04 16:15:17;;;;;;;46.03;33.38;;;;;;;7.12;52.41;100649.78;5569048;32;34327;-54
2022/03/04 16:18:20;;;;;;;47.95;33.65;;;;;;;7.00;52.96;100649.09;5568930;32;33729;-54
2022/03/04 16:21:22;;;;;;;47.40;34.25;;;;;;;6.99;52.99;100656.28;5568941;32;34233;-54
2022/03/04 16:24:24;;;;;;;48.72;33.55;;;;;;;6.95;53.28;100654.34;5568845;32;34455;-54
2022/03/04 16:27:26;;;;;;;50.53;34.00;;;;;;;6.98;53.05;100656.53;5568835;32;33622;-54
2022/03/04 16:30:29;;;;;;;50.85;33.97;;;;;;;6.95;53.41;100657.81;5568720;32;33700;-54
2022/03/04 16:33:31;;;;;;;51.37;36.00;;;;;;;6.87;53.08;100647.63;5568833;32;34411;-54
2022/03/04 16:36:33;;;;;;;49.50;34.95;;;;;;;6.82;53.48;100653.69;5568906;32;34378;-54
2022/03/04 16:39:36;;;;;;;51.13;34.83;;;;;;;6.85;53.17;100649.72;5568839;32;33640;-54
2022/03/04 16:42:38;;;;;;;51.37;34.03;;;;;;;6.81;53.25;100651.28;5568584;32;34431;-54
